sensor_id;sensor_type;location;lat;lon;timestamp;temperature;humidity
10121;DHT22;5100;45.176;5.714;2023-07-28T00:00:18;25.80;56.50
10121;DHT22;5100;45.176;5.714;2023-07-28T00:02:44;25.80;56.50
10121;DHT22;5100;45.176;5.714;2023-07-28T00:05:10;25.80;56.40
10121;DHT22;5100;45.176;5.714;2023-07-28T00:07:36;25.80;56.40
10121;DHT22;5100;45.176;5.714;2023-07-28T00:10:02;25.80;56.40
10121;DHT22;5100;45.176;5.714;2023-07-28T00:12:28;25.70;56.30
10121;DHT22;5100;45.176;5.714;2023-07-28T00:14:54;25.70;56.30
10121;DHT22;5100;45.176;5.714;2023-07-28T00:17:21;25.70;56.40
10121;DHT22;5100;45.176;5.714;2023-07-28T00:19:47;25.70;56.30
10121;DHT22;5100;45.176;5.714;2023-07-28T00:22:13;25.70;56.20
10121;DHT22;5100;45.176;5.714;2023-07-28T00:24:39;25.70;56.00
10121;DHT22;5100;45.176;5.714;2023-07-28T00:27:05;25.70;55.90
10121;DHT22;5100;45.176;5.714;2023-07-28T00:29:31;25.70;55.70
10121;DHT22;5100;45.176;5.714;2023-07-28T00:31:57;25.60;55.70
10121;DHT22;5100;45.176;5.714;2023-07-28T00:34:23;25.60;55.70
10121;DHT22;5100;45.176;5.714;2023-07-28T00:36:50;25.60;55.80
10121;DHT22;5100;45.176;5.714;2023-07-28T00:39:16;25.60;55.80
10121;DHT22;5100;45.176;5.714;2023-07-28T00:41:42;25.60;55.80
10121;DHT22;5100;45.176;5.714;2023-07-28T00:44:08;25.60;55.80
10121;DHT22;5100;45.176;5.714;2023-07-28T00:46:34;25.60;55.70
10121;DHT22;5100;45.176;5.714;2023-07-28T00:49:01;25.60;55.80
10121;DHT22;5100;45.176;5.714;2023-07-28T00:51:29;25.60;55.80
10121;DHT22;5100;45.176;5.714;2023-07-28T00:53:57;25.60;55.80
10121;DHT22;5100;45.176;5.714;2023-07-28T00:56:25;25.60;55.90
10121;DHT22;5100;45.176;5.714;2023-07-28T00:58:51;25.50;55.90
10121;DHT22;5100;45.176;5.714;2023-07-28T01:01:17;25.50;55.90
10121;DHT22;5100;45.176;5.714;2023-07-28T01:03:43;25.50;56.00
10121;DHT22;5100;45.176;5.714;2023-07-28T01:06:37;25.50;55.80
10121;DHT22;5100;45.176;5.714;2023-07-28T01:09:12;25.50;55.80
10121;DHT22;5100;45.176;5.714;2023-07-28T01:11:55;25.50;55.90
10121;DHT22;5100;45.176;5.714;2023-07-28T01:14:23;25.50;56.00
10121;DHT22;5100;45.176;5.714;2023-07-28T01:16:49;25.50;56.00
10121;DHT22;5100;45.176;5.714;2023-07-28T01:19:17;25.50;56.10
10121;DHT22;5100;45.176;5.714;2023-07-28T01:22:16;25.40;56.00
10121;DHT22;5100;45.176;5.714;2023-07-28T01:24:51;25.40;56.10
10121;DHT22;5100;45.176;5.714;2023-07-28T01:27:21;25.40;56.10
10121;DHT22;5100;45.176;5.714;2023-07-28T01:29:47;25.40;56.00
10121;DHT22;5100;45.176;5.714;2023-07-28T01:32:14;25.40;56.10
10121;DHT22;5100;45.176;5.714;2023-07-28T01:34:40;25.40;56.20
10121;DHT22;5100;45.176;5.714;2023-07-28T01:37:06;25.40;56.20
10121;DHT22;5100;45.176;5.714;2023-07-28T01:39:32;25.40;56.20
10121;DHT22;5100;45.176;5.714;2023-07-28T01:41:59;25.30;56.20
10121;DHT22;5100;45.176;5.714;2023-07-28T01:44:25;25.30;56.20
10121;DHT22;5100;45.176;5.714;2023-07-28T01:46:51;25.30;56.30
10121;DHT22;5100;45.176;5.714;2023-07-28T01:49:17;25.30;56.40
10121;DHT22;5100;45.176;5.714;2023-07-28T01:51:43;25.30;56.50
10121;DHT22;5100;45.176;5.714;2023-07-28T01:54:09;25.30;56.50
10121;DHT22;5100;45.176;5.714;2023-07-28T01:56:36;25.30;56.60
10121;DHT22;5100;45.176;5.714;2023-07-28T01:59:02;25.30;56.60
10121;DHT22;5100;45.176;5.714;2023-07-28T02:01:28;25.30;56.60
10121;DHT22;5100;45.176;5.714;2023-07-28T02:03:54;25.30;56.70
10121;DHT22;5100;45.176;5.714;2023-07-28T02:06:20;25.30;56.70
10121;DHT22;5100;45.176;5.714;2023-07-28T02:08:46;25.20;56.70
10121;DHT22;5100;45.176;5.714;2023-07-28T02:11:12;25.20;56.80
10121;DHT22;5100;45.176;5.714;2023-07-28T02:13:38;25.20;56.80
10121;DHT22;5100;45.176;5.714;2023-07-28T02:16:04;25.20;57.00
10121;DHT22;5100;45.176;5.714;2023-07-28T02:18:30;25.20;57.10
10121;DHT22;5100;45.176;5.714;2023-07-28T02:20:56;25.20;57.10
10121;DHT22;5100;45.176;5.714;2023-07-28T02:23:22;25.20;57.30
10121;DHT22;5100;45.176;5.714;2023-07-28T02:25:48;25.20;57.50
10121;DHT22;5100;45.176;5.714;2023-07-28T02:28:14;25.20;57.90
10121;DHT22;5100;45.176;5.714;2023-07-28T02:30:40;25.20;58.30
10121;DHT22;5100;45.176;5.714;2023-07-28T02:33:06;25.20;58.70
10121;DHT22;5100;45.176;5.714;2023-07-28T02:35:32;25.20;59.00
10121;DHT22;5100;45.176;5.714;2023-07-28T02:37:58;25.10;59.40
10121;DHT22;5100;45.176;5.714;2023-07-28T02:40:25;25.10;59.70
10121;DHT22;5100;45.176;5.714;2023-07-28T02:42:50;25.10;60.10
10121;DHT22;5100;45.176;5.714;2023-07-28T02:45:19;25.10;60.40
10121;DHT22;5100;45.176;5.714;2023-07-28T02:47:45;25.10;60.70
10121;DHT22;5100;45.176;5.714;2023-07-28T02:50:11;25.10;61.00
10121;DHT22;5100;45.176;5.714;2023-07-28T02:52:37;25.10;61.30
10121;DHT22;5100;45.176;5.714;2023-07-28T02:55:04;25.10;61.40
10121;DHT22;5100;45.176;5.714;2023-07-28T02:57:30;25.10;61.60
10121;DHT22;5100;45.176;5.714;2023-07-28T02:59:56;25.10;61.70
10121;DHT22;5100;45.176;5.714;2023-07-28T03:02:22;25.10;61.80
10121;DHT22;5100;45.176;5.714;2023-07-28T03:04:48;25.10;61.90
10121;DHT22;5100;45.176;5.714;2023-07-28T03:07:15;25.10;61.90
10121;DHT22;5100;45.176;5.714;2023-07-28T03:09:42;25.00;62.00
10121;DHT22;5100;45.176;5.714;2023-07-28T03:12:08;25.00;61.90
10121;DHT22;5100;45.176;5.714;2023-07-28T03:14:34;25.00;61.70
10121;DHT22;5100;45.176;5.714;2023-07-28T03:17:00;25.00;61.60
10121;DHT22;5100;45.176;5.714;2023-07-28T03:19:26;25.00;61.60
10121;DHT22;5100;45.176;5.714;2023-07-28T03:21:52;25.00;61.70
10121;DHT22;5100;45.176;5.714;2023-07-28T03:24:19;25.00;61.80
10121;DHT22;5100;45.176;5.714;2023-07-28T03:26:45;25.00;61.90
10121;DHT22;5100;45.176;5.714;2023-07-28T03:29:11;25.00;62.00
10121;DHT22;5100;45.176;5.714;2023-07-28T03:31:37;25.00;62.00
10121;DHT22;5100;45.176;5.714;2023-07-28T03:34:03;25.00;62.10
10121;DHT22;5100;45.176;5.714;2023-07-28T03:36:30;25.00;62.00
10121;DHT22;5100;45.176;5.714;2023-07-28T03:38:57;25.00;61.70
10121;DHT22;5100;45.176;5.714;2023-07-28T03:41:23;25.00;61.30
10121;DHT22;5100;45.176;5.714;2023-07-28T03:43:49;25.00;60.90
10121;DHT22;5100;45.176;5.714;2023-07-28T03:46:16;25.00;60.90
10121;DHT22;5100;45.176;5.714;2023-07-28T03:48:42;25.00;61.20
10121;DHT22;5100;45.176;5.714;2023-07-28T03:51:08;25.00;61.30
10121;DHT22;5100;45.176;5.714;2023-07-28T03:53:34;25.00;61.50
10121;DHT22;5100;45.176;5.714;2023-07-28T03:56:02;25.00;61.60
10121;DHT22;5100;45.176;5.714;2023-07-28T03:58:28;25.00;61.80
10121;DHT22;5100;45.176;5.714;2023-07-28T04:00:54;25.00;62.10
10121;DHT22;5100;45.176;5.714;2023-07-28T04:03:21;25.00;62.90
10121;DHT22;5100;45.176;5.714;2023-07-28T04:05:47;25.00;63.10
10121;DHT22;5100;45.176;5.714;2023-07-28T04:08:13;25.00;62.90
10121;DHT22;5100;45.176;5.714;2023-07-28T04:10:39;25.00;62.10
10121;DHT22;5100;45.176;5.714;2023-07-28T04:13:05;25.00;61.30
10121;DHT22;5100;45.176;5.714;2023-07-28T04:15:31;25.00;60.70
10121;DHT22;5100;45.176;5.714;2023-07-28T04:17:57;25.10;60.20
10121;DHT22;5100;45.176;5.714;2023-07-28T04:20:23;25.10;59.90
10121;DHT22;5100;45.176;5.714;2023-07-28T04:22:48;25.00;59.80
10121;DHT22;5100;45.176;5.714;2023-07-28T04:25:15;25.10;60.00
10121;DHT22;5100;45.176;5.714;2023-07-28T04:27:42;25.10;60.60
10121;DHT22;5100;45.176;5.714;2023-07-28T04:30:09;25.10;61.30
10121;DHT22;5100;45.176;5.714;2023-07-28T04:32:35;25.00;61.60
10121;DHT22;5100;45.176;5.714;2023-07-28T04:35:02;25.00;62.00
10121;DHT22;5100;45.176;5.714;2023-07-28T04:37:28;25.00;62.30
10121;DHT22;5100;45.176;5.714;2023-07-28T04:39:54;25.00;62.60
10121;DHT22;5100;45.176;5.714;2023-07-28T04:42:20;25.00;62.80
10121;DHT22;5100;45.176;5.714;2023-07-28T04:44:47;25.00;62.90
10121;DHT22;5100;45.176;5.714;2023-07-28T04:47:13;24.90;63.00
10121;DHT22;5100;45.176;5.714;2023-07-28T04:49:40;24.90;63.30
10121;DHT22;5100;45.176;5.714;2023-07-28T04:52:11;24.90;63.70
10121;DHT22;5100;45.176;5.714;2023-07-28T04:54:38;24.90;63.90
10121;DHT22;5100;45.176;5.714;2023-07-28T04:57:04;24.90;64.20
10121;DHT22;5100;45.176;5.714;2023-07-28T04:59:31;24.90;64.50
10121;DHT22;5100;45.176;5.714;2023-07-28T05:01:57;24.80;64.80
10121;DHT22;5100;45.176;5.714;2023-07-28T05:04:23;24.80;65.00
10121;DHT22;5100;45.176;5.714;2023-07-28T05:06:49;24.80;65.70
10121;DHT22;5100;45.176;5.714;2023-07-28T05:09:15;24.80;66.50
10121;DHT22;5100;45.176;5.714;2023-07-28T05:11:41;24.80;67.20
10121;DHT22;5100;45.176;5.714;2023-07-28T05:14:07;24.70;67.60
10121;DHT22;5100;45.176;5.714;2023-07-28T05:16:35;24.70;68.10
10121;DHT22;5100;45.176;5.714;2023-07-28T05:19:07;24.70;68.40
10121;DHT22;5100;45.176;5.714;2023-07-28T05:21:35;24.60;68.60
10121;DHT22;5100;45.176;5.714;2023-07-28T05:24:01;24.60;69.10
10121;DHT22;5100;45.176;5.714;2023-07-28T05:26:29;24.60;69.50
10121;DHT22;5100;45.176;5.714;2023-07-28T05:28:55;24.50;69.60
10121;DHT22;5100;45.176;5.714;2023-07-28T05:31:21;24.50;69.30
10121;DHT22;5100;45.176;5.714;2023-07-28T05:33:47;24.50;69.10
10121;DHT22;5100;45.176;5.714;2023-07-28T05:36:13;24.40;69.20
10121;DHT22;5100;45.176;5.714;2023-07-28T05:38:39;24.40;69.10
10121;DHT22;5100;45.176;5.714;2023-07-28T05:41:05;24.40;69.30
10121;DHT22;5100;45.176;5.714;2023-07-28T05:43:33;24.40;69.50
10121;DHT22;5100;45.176;5.714;2023-07-28T05:46:00;24.40;69.70
10121;DHT22;5100;45.176;5.714;2023-07-28T05:48:26;24.30;69.90
10121;DHT22;5100;45.176;5.714;2023-07-28T05:50:52;24.30;70.00
10121;DHT22;5100;45.176;5.714;2023-07-28T05:53:22;24.30;69.90
10121;DHT22;5100;45.176;5.714;2023-07-28T05:55:49;24.30;69.80
10121;DHT22;5100;45.176;5.714;2023-07-28T05:58:16;24.30;70.10
10121;DHT22;5100;45.176;5.714;2023-07-28T06:00:43;24.30;70.50
10121;DHT22;5100;45.176;5.714;2023-07-28T06:03:13;24.30;70.70
10121;DHT22;5100;45.176;5.714;2023-07-28T06:05:41;24.30;70.80
10121;DHT22;5100;45.176;5.714;2023-07-28T06:08:08;24.30;71.10
10121;DHT22;5100;45.176;5.714;2023-07-28T06:10:35;24.30;71.10
10121;DHT22;5100;45.176;5.714;2023-07-28T06:13:01;24.30;71.10
10121;DHT22;5100;45.176;5.714;2023-07-28T06:15:29;24.30;71.40
10121;DHT22;5100;45.176;5.714;2023-07-28T06:17:56;24.40;71.70
10121;DHT22;5100;45.176;5.714;2023-07-28T06:20:22;24.40;71.80
10121;DHT22;5100;45.176;5.714;2023-07-28T06:22:48;24.40;72.00
10121;DHT22;5100;45.176;5.714;2023-07-28T06:25:14;24.40;72.10
10121;DHT22;5100;45.176;5.714;2023-07-28T06:27:41;24.50;72.40
10121;DHT22;5100;45.176;5.714;2023-07-28T06:30:08;24.60;72.60
10121;DHT22;5100;45.176;5.714;2023-07-28T06:32:35;24.60;72.60
10121;DHT22;5100;45.176;5.714;2023-07-28T06:35:01;24.70;72.40
10121;DHT22;5100;45.176;5.714;2023-07-28T06:37:28;24.70;72.50
10121;DHT22;5100;45.176;5.714;2023-07-28T06:39:55;24.80;72.60
10121;DHT22;5100;45.176;5.714;2023-07-28T06:42:21;24.80;72.60
10121;DHT22;5100;45.176;5.714;2023-07-28T06:44:54;24.80;72.70
10121;DHT22;5100;45.176;5.714;2023-07-28T06:47:20;24.90;72.80
10121;DHT22;5100;45.176;5.714;2023-07-28T06:49:46;24.90;72.80
10121;DHT22;5100;45.176;5.714;2023-07-28T06:52:12;24.90;72.60
10121;DHT22;5100;45.176;5.714;2023-07-28T06:54:38;24.90;72.50
10121;DHT22;5100;45.176;5.714;2023-07-28T06:57:06;25.00;72.40
10121;DHT22;5100;45.176;5.714;2023-07-28T06:59:32;25.00;72.40
10121;DHT22;5100;45.176;5.714;2023-07-28T07:01:59;25.00;72.30
10121;DHT22;5100;45.176;5.714;2023-07-28T07:04:26;25.00;72.30
10121;DHT22;5100;45.176;5.714;2023-07-28T07:06:52;25.10;72.20
10121;DHT22;5100;45.176;5.714;2023-07-28T07:09:18;25.10;72.00
10121;DHT22;5100;45.176;5.714;2023-07-28T07:11:44;25.10;72.10
10121;DHT22;5100;45.176;5.714;2023-07-28T07:14:09;25.10;72.20
10121;DHT22;5100;45.176;5.714;2023-07-28T07:16:36;25.20;72.30
10121;DHT22;5100;45.176;5.714;2023-07-28T07:19:02;25.20;72.20
10121;DHT22;5100;45.176;5.714;2023-07-28T07:21:28;25.20;72.40
10121;DHT22;5100;45.176;5.714;2023-07-28T07:23:55;25.20;72.60
10121;DHT22;5100;45.176;5.714;2023-07-28T07:26:24;25.30;72.70
10121;DHT22;5100;45.176;5.714;2023-07-28T07:28:50;25.30;72.70
10121;DHT22;5100;45.176;5.714;2023-07-28T07:31:16;25.30;72.40
10121;DHT22;5100;45.176;5.714;2023-07-28T07:33:42;25.30;72.20
10121;DHT22;5100;45.176;5.714;2023-07-28T07:36:15;25.30;72.00
10121;DHT22;5100;45.176;5.714;2023-07-28T07:38:42;25.30;71.90
10121;DHT22;5100;45.176;5.714;2023-07-28T07:41:12;25.30;71.80
10121;DHT22;5100;45.176;5.714;2023-07-28T07:43:39;25.30;71.90
10121;DHT22;5100;45.176;5.714;2023-07-28T07:46:05;25.30;72.10
10121;DHT22;5100;45.176;5.714;2023-07-28T07:48:31;25.40;72.40
10121;DHT22;5100;45.176;5.714;2023-07-28T07:50:57;25.40;72.60
10121;DHT22;5100;45.176;5.714;2023-07-28T07:53:23;25.50;72.60
10121;DHT22;5100;45.176;5.714;2023-07-28T07:55:49;25.50;71.80
10121;DHT22;5100;45.176;5.714;2023-07-28T07:58:15;25.60;71.20
10121;DHT22;5100;45.176;5.714;2023-07-28T08:00:41;25.60;71.20
10121;DHT22;5100;45.176;5.714;2023-07-28T08:03:09;25.70;71.10
10121;DHT22;5100;45.176;5.714;2023-07-28T08:05:35;25.70;71.10
10121;DHT22;5100;45.176;5.714;2023-07-28T08:08:01;25.80;71.30
10121;DHT22;5100;45.176;5.714;2023-07-28T08:10:28;25.80;70.70
10121;DHT22;5100;45.176;5.714;2023-07-28T08:12:55;25.90;70.30
10121;DHT22;5100;45.176;5.714;2023-07-28T08:15:21;25.90;69.50
10121;DHT22;5100;45.176;5.714;2023-07-28T08:17:47;25.90;68.90
10121;DHT22;5100;45.176;5.714;2023-07-28T08:20:13;25.90;67.90
10121;DHT22;5100;45.176;5.714;2023-07-28T08:22:39;26.00;67.10
10121;DHT22;5100;45.176;5.714;2023-07-28T08:25:05;26.00;66.80
10121;DHT22;5100;45.176;5.714;2023-07-28T08:27:31;26.00;66.80
10121;DHT22;5100;45.176;5.714;2023-07-28T08:29:57;26.10;66.60
10121;DHT22;5100;45.176;5.714;2023-07-28T08:32:23;26.10;65.90
10121;DHT22;5100;45.176;5.714;2023-07-28T08:34:49;26.10;65.60
10121;DHT22;5100;45.176;5.714;2023-07-28T08:37:15;26.20;65.50
10121;DHT22;5100;45.176;5.714;2023-07-28T08:39:41;26.20;65.00
10121;DHT22;5100;45.176;5.714;2023-07-28T08:42:07;26.20;64.80
10121;DHT22;5100;45.176;5.714;2023-07-28T08:44:34;26.30;64.50
10121;DHT22;5100;45.176;5.714;2023-07-28T08:47:04;26.30;64.30
10121;DHT22;5100;45.176;5.714;2023-07-28T08:49:33;26.40;64.30
10121;DHT22;5100;45.176;5.714;2023-07-28T08:52:02;26.40;64.40
10121;DHT22;5100;45.176;5.714;2023-07-28T08:54:29;26.50;65.00
10121;DHT22;5100;45.176;5.714;2023-07-28T08:56:56;26.50;65.40
10121;DHT22;5100;45.176;5.714;2023-07-28T08:59:27;26.60;65.50
10121;DHT22;5100;45.176;5.714;2023-07-28T09:01:55;26.60;65.40
10121;DHT22;5100;45.176;5.714;2023-07-28T09:04:22;26.60;65.40
10121;DHT22;5100;45.176;5.714;2023-07-28T09:06:49;26.70;64.30
10121;DHT22;5100;45.176;5.714;2023-07-28T09:09:17;26.80;63.70
10121;DHT22;5100;45.176;5.714;2023-07-28T09:11:51;26.80;63.80
10121;DHT22;5100;45.176;5.714;2023-07-28T09:14:20;26.90;63.90
10121;DHT22;5100;45.176;5.714;2023-07-28T09:16:47;26.90;63.50
10121;DHT22;5100;45.176;5.714;2023-07-28T09:19:13;26.90;63.30
10121;DHT22;5100;45.176;5.714;2023-07-28T09:21:42;27.00;63.30
10121;DHT22;5100;45.176;5.714;2023-07-28T09:24:12;27.00;63.50
10121;DHT22;5100;45.176;5.714;2023-07-28T09:26:40;27.10;63.20
10121;DHT22;5100;45.176;5.714;2023-07-28T09:29:22;27.10;62.90
10121;DHT22;5100;45.176;5.714;2023-07-28T09:31:49;27.10;62.60
10121;DHT22;5100;45.176;5.714;2023-07-28T09:34:28;27.10;62.30
10121;DHT22;5100;45.176;5.714;2023-07-28T09:36:56;27.20;62.10
10121;DHT22;5100;45.176;5.714;2023-07-28T09:39:22;27.20;62.10
10121;DHT22;5100;45.176;5.714;2023-07-28T09:41:49;27.20;62.00
10121;DHT22;5100;45.176;5.714;2023-07-28T09:44:16;27.20;62.00
10121;DHT22;5100;45.176;5.714;2023-07-28T09:46:51;27.30;62.20
10121;DHT22;5100;45.176;5.714;2023-07-28T09:49:37;27.30;62.50
10121;DHT22;5100;45.176;5.714;2023-07-28T09:52:08;27.30;62.30
10121;DHT22;5100;45.176;5.714;2023-07-28T09:54:41;27.40;62.40
10121;DHT22;5100;45.176;5.714;2023-07-28T09:57:14;27.40;61.90
10121;DHT22;5100;45.176;5.714;2023-07-28T09:59:47;27.40;61.90
10121;DHT22;5100;45.176;5.714;2023-07-28T10:02:13;27.40;61.70
10121;DHT22;5100;45.176;5.714;2023-07-28T10:04:40;27.40;61.50
10121;DHT22;5100;45.176;5.714;2023-07-28T10:07:07;27.50;61.50
10121;DHT22;5100;45.176;5.714;2023-07-28T10:09:34;27.50;61.30
10121;DHT22;5100;45.176;5.714;2023-07-28T10:12:01;27.50;61.10
10121;DHT22;5100;45.176;5.714;2023-07-28T10:14:30;27.50;61.00
10121;DHT22;5100;45.176;5.714;2023-07-28T10:16:58;27.50;60.70
10121;DHT22;5100;45.176;5.714;2023-07-28T10:19:25;27.60;60.60
10121;DHT22;5100;45.176;5.714;2023-07-28T10:21:59;27.60;60.70
10121;DHT22;5100;45.176;5.714;2023-07-28T10:27:45;27.80;60.70
10121;DHT22;5100;45.176;5.714;2023-07-28T10:30:14;27.80;60.20
10121;DHT22;5100;45.176;5.714;2023-07-28T10:32:42;27.90;59.90
10121;DHT22;5100;45.176;5.714;2023-07-28T10:37:39;28.00;59.60
10121;DHT22;5100;45.176;5.714;2023-07-28T10:42:48;28.10;59.10
10121;DHT22;5100;45.176;5.714;2023-07-28T10:45:15;28.10;59.00
10121;DHT22;5100;45.176;5.714;2023-07-28T10:47:41;28.20;58.90
10121;DHT22;5100;45.176;5.714;2023-07-28T10:50:11;28.20;58.90
10121;DHT22;5100;45.176;5.714;2023-07-28T10:52:41;28.30;58.80
10121;DHT22;5100;45.176;5.714;2023-07-28T10:55:15;28.40;58.60
10121;DHT22;5100;45.176;5.714;2023-07-28T10:57:42;28.40;58.40
10121;DHT22;5100;45.176;5.714;2023-07-28T11:00:10;28.40;58.30
10121;DHT22;5100;45.176;5.714;2023-07-28T11:02:47;28.50;58.10
10121;DHT22;5100;45.176;5.714;2023-07-28T11:05:26;28.50;58.10
10121;DHT22;5100;45.176;5.714;2023-07-28T11:07:55;28.60;58.00
10121;DHT22;5100;45.176;5.714;2023-07-28T11:10:21;28.60;57.50
10121;DHT22;5100;45.176;5.714;2023-07-28T11:12:48;28.60;57.40
10121;DHT22;5100;45.176;5.714;2023-07-28T11:15:16;28.60;57.30
10121;DHT22;5100;45.176;5.714;2023-07-28T11:17:50;28.70;57.10
10121;DHT22;5100;45.176;5.714;2023-07-28T11:20:24;28.70;57.20
10121;DHT22;5100;45.176;5.714;2023-07-28T11:22:56;28.70;57.20
10121;DHT22;5100;45.176;5.714;2023-07-28T11:25:23;28.70;57.20
10121;DHT22;5100;45.176;5.714;2023-07-28T11:27:50;28.80;57.10
10121;DHT22;5100;45.176;5.714;2023-07-28T11:30:18;28.80;56.90
10121;DHT22;5100;45.176;5.714;2023-07-28T11:32:45;28.80;56.70
10121;DHT22;5100;45.176;5.714;2023-07-28T11:35:14;28.80;56.60
10121;DHT22;5100;45.176;5.714;2023-07-28T11:37:42;28.90;56.60
10121;DHT22;5100;45.176;5.714;2023-07-28T11:40:09;28.90;56.70
10121;DHT22;5100;45.176;5.714;2023-07-28T11:42:40;29.00;56.90
10121;DHT22;5100;45.176;5.714;2023-07-28T11:45:07;29.00;57.10
10121;DHT22;5100;45.176;5.714;2023-07-28T11:47:33;29.00;57.40
10121;DHT22;5100;45.176;5.714;2023-07-28T11:50:00;29.00;57.70
10121;DHT22;5100;45.176;5.714;2023-07-28T11:54:56;29.10;57.40
10121;DHT22;5100;45.176;5.714;2023-07-28T11:57:28;29.10;57.50
10121;DHT22;5100;45.176;5.714;2023-07-28T11:59:57;29.20;57.60
10121;DHT22;5100;45.176;5.714;2023-07-28T12:02:27;29.20;57.50
10121;DHT22;5100;45.176;5.714;2023-07-28T12:04:54;29.20;57.80
10121;DHT22;5100;45.176;5.714;2023-07-28T12:07:32;29.20;57.90
10121;DHT22;5100;45.176;5.714;2023-07-28T12:10:05;29.20;57.90
10121;DHT22;5100;45.176;5.714;2023-07-28T12:12:47;29.20;57.70
10121;DHT22;5100;45.176;5.714;2023-07-28T12:15:25;29.30;57.50
10121;DHT22;5100;45.176;5.714;2023-07-28T12:18:05;29.30;57.20
10121;DHT22;5100;45.176;5.714;2023-07-28T12:20:49;29.30;56.80
10121;DHT22;5100;45.176;5.714;2023-07-28T12:23:17;29.30;57.00
10121;DHT22;5100;45.176;5.714;2023-07-28T12:25:44;29.20;56.80
10121;DHT22;5100;45.176;5.714;2023-07-28T12:28:10;29.20;56.60
10121;DHT22;5100;45.176;5.714;2023-07-28T12:30:37;29.20;56.40
10121;DHT22;5100;45.176;5.714;2023-07-28T12:33:04;29.20;56.30
10121;DHT22;5100;45.176;5.714;2023-07-28T12:35:32;29.20;56.00
10121;DHT22;5100;45.176;5.714;2023-07-28T12:38:01;29.10;56.00
10121;DHT22;5100;45.176;5.714;2023-07-28T12:40:30;29.10;56.30
10121;DHT22;5100;45.176;5.714;2023-07-28T12:42:57;29.10;56.40
10121;DHT22;5100;45.176;5.714;2023-07-28T12:45:24;29.10;56.50
10121;DHT22;5100;45.176;5.714;2023-07-28T12:47:55;29.10;56.60
10121;DHT22;5100;45.176;5.714;2023-07-28T12:50:24;29.10;56.60
10121;DHT22;5100;45.176;5.714;2023-07-28T12:52:50;29.10;56.50
10121;DHT22;5100;45.176;5.714;2023-07-28T12:55:17;29.10;56.50
10121;DHT22;5100;45.176;5.714;2023-07-28T12:57:44;29.20;56.50
10121;DHT22;5100;45.176;5.714;2023-07-28T13:00:11;29.20;56.30
10121;DHT22;5100;45.176;5.714;2023-07-28T13:02:45;29.20;56.40
10121;DHT22;5100;45.176;5.714;2023-07-28T13:05:12;29.30;56.40
10121;DHT22;5100;45.176;5.714;2023-07-28T13:07:38;29.30;56.20
10121;DHT22;5100;45.176;5.714;2023-07-28T13:10:07;29.30;55.90
10121;DHT22;5100;45.176;5.714;2023-07-28T13:12:34;29.40;55.90
10121;DHT22;5100;45.176;5.714;2023-07-28T13:15:00;29.40;56.10
10121;DHT22;5100;45.176;5.714;2023-07-28T13:17:27;29.40;56.10
10121;DHT22;5100;45.176;5.714;2023-07-28T13:19:53;29.40;56.20
10121;DHT22;5100;45.176;5.714;2023-07-28T13:22:19;29.50;56.20
10121;DHT22;5100;45.176;5.714;2023-07-28T13:24:45;29.50;56.20
10121;DHT22;5100;45.176;5.714;2023-07-28T13:27:11;29.50;56.20
10121;DHT22;5100;45.176;5.714;2023-07-28T13:29:37;29.60;56.30
10121;DHT22;5100;45.176;5.714;2023-07-28T13:32:03;29.60;56.30
10121;DHT22;5100;45.176;5.714;2023-07-28T13:34:29;29.60;56.30
10121;DHT22;5100;45.176;5.714;2023-07-28T13:36:56;29.60;56.30
10121;DHT22;5100;45.176;5.714;2023-07-28T13:39:22;29.60;56.30
10121;DHT22;5100;45.176;5.714;2023-07-28T13:41:49;29.60;56.30
10121;DHT22;5100;45.176;5.714;2023-07-28T13:44:15;29.70;56.10
10121;DHT22;5100;45.176;5.714;2023-07-28T13:46:41;29.70;56.10
10121;DHT22;5100;45.176;5.714;2023-07-28T13:49:07;29.70;56.20
10121;DHT22;5100;45.176;5.714;2023-07-28T13:51:33;29.70;56.20
10121;DHT22;5100;45.176;5.714;2023-07-28T13:53:59;29.70;56.20
10121;DHT22;5100;45.176;5.714;2023-07-28T13:56:25;29.70;56.20
10121;DHT22;5100;45.176;5.714;2023-07-28T13:58:51;29.70;56.20
10121;DHT22;5100;45.176;5.714;2023-07-28T14:01:17;29.70;56.20
10121;DHT22;5100;45.176;5.714;2023-07-28T14:03:43;29.80;56.00
10121;DHT22;5100;45.176;5.714;2023-07-28T14:06:10;29.80;56.00
10121;DHT22;5100;45.176;5.714;2023-07-28T14:08:36;29.80;56.10
10121;DHT22;5100;45.176;5.714;2023-07-28T14:11:02;29.80;56.10
10121;DHT22;5100;45.176;5.714;2023-07-28T14:13:28;29.80;56.10
10121;DHT22;5100;45.176;5.714;2023-07-28T14:15:54;29.90;56.10
10121;DHT22;5100;45.176;5.714;2023-07-28T14:18:21;29.90;56.30
10121;DHT22;5100;45.176;5.714;2023-07-28T14:20:47;29.90;56.40
10121;DHT22;5100;45.176;5.714;2023-07-28T14:23:27;29.90;56.40
10121;DHT22;5100;45.176;5.714;2023-07-28T14:25:53;30.00;56.40
10121;DHT22;5100;45.176;5.714;2023-07-28T14:28:21;30.00;56.40
10121;DHT22;5100;45.176;5.714;2023-07-28T14:30:47;30.00;56.40
10121;DHT22;5100;45.176;5.714;2023-07-28T14:33:14;30.00;56.30
10121;DHT22;5100;45.176;5.714;2023-07-28T14:35:41;30.00;56.30
10121;DHT22;5100;45.176;5.714;2023-07-28T14:38:07;30.00;56.30
10121;DHT22;5100;45.176;5.714;2023-07-28T14:40:34;30.00;56.40
10121;DHT22;5100;45.176;5.714;2023-07-28T14:43:00;30.00;56.50
10121;DHT22;5100;45.176;5.714;2023-07-28T14:45:26;30.00;56.40
10121;DHT22;5100;45.176;5.714;2023-07-28T14:47:52;30.00;56.30
10121;DHT22;5100;45.176;5.714;2023-07-28T14:50:18;30.00;56.20
10121;DHT22;5100;45.176;5.714;2023-07-28T14:52:44;30.00;56.20
10121;DHT22;5100;45.176;5.714;2023-07-28T14:55:10;30.00;56.20
10121;DHT22;5100;45.176;5.714;2023-07-28T14:57:36;30.00;56.20
10121;DHT22;5100;45.176;5.714;2023-07-28T15:00:02;30.00;56.10
10121;DHT22;5100;45.176;5.714;2023-07-28T15:02:29;30.00;55.90
10121;DHT22;5100;45.176;5.714;2023-07-28T15:04:55;30.10;55.80
10121;DHT22;5100;45.176;5.714;2023-07-28T15:07:21;30.10;55.70
10121;DHT22;5100;45.176;5.714;2023-07-28T15:09:48;30.10;55.50
10121;DHT22;5100;45.176;5.714;2023-07-28T15:12:14;30.10;55.50
10121;DHT22;5100;45.176;5.714;2023-07-28T15:14:40;30.10;55.50
10121;DHT22;5100;45.176;5.714;2023-07-28T15:17:06;30.10;55.40
10121;DHT22;5100;45.176;5.714;2023-07-28T15:19:32;30.10;55.20
10121;DHT22;5100;45.176;5.714;2023-07-28T15:21:58;30.10;55.10
10121;DHT22;5100;45.176;5.714;2023-07-28T15:24:24;30.10;54.90
10121;DHT22;5100;45.176;5.714;2023-07-28T15:26:50;30.10;54.70
10121;DHT22;5100;45.176;5.714;2023-07-28T15:29:18;30.20;54.50
10121;DHT22;5100;45.176;5.714;2023-07-28T15:31:44;30.20;54.20
10121;DHT22;5100;45.176;5.714;2023-07-28T15:34:10;30.30;54.10
10121;DHT22;5100;45.176;5.714;2023-07-28T15:36:36;30.30;54.00
10121;DHT22;5100;45.176;5.714;2023-07-28T15:39:02;30.30;53.90
10121;DHT22;5100;45.176;5.714;2023-07-28T15:41:29;30.30;53.90
10121;DHT22;5100;45.176;5.714;2023-07-28T15:43:55;30.40;53.90
10121;DHT22;5100;45.176;5.714;2023-07-28T15:46:23;30.40;54.00
10121;DHT22;5100;45.176;5.714;2023-07-28T15:48:48;30.40;53.90
10121;DHT22;5100;45.176;5.714;2023-07-28T15:51:14;30.40;53.90
10121;DHT22;5100;45.176;5.714;2023-07-28T15:53:40;30.50;53.90
10121;DHT22;5100;45.176;5.714;2023-07-28T15:56:07;30.50;53.90